sensor_id;sensor_type;location;lat;lon;timestamp;temperature;humidity
9828;DHT22;4953;48.952;9.442;2022-09-09T03:58:05;15.20;99.90
9828;DHT22;4953;48.952;9.442;2022-09-09T04:00:32;15.10;99.90
9828;DHT22;4953;48.952;9.442;2022-09-09T04:02:58;15.10;99.90
9828;DHT22;4953;48.952;9.442;2022-09-09T04:05:25;15.10;99.90
9828;DHT22;4953;48.952;9.442;2022-09-09T04:07:52;15.10;99.90
9828;DHT22;4953;48.952;9.442;2022-09-09T04:10:19;15.10;99.90
9828;DHT22;4953;48.952;9.442;2022-09-09T04:12:47;15.20;99.90
9828;DHT22;4953;48.952;9.442;2022-09-09T04:15:15;15.20;99.90
9828;DHT22;4953;48.952;9.442;2022-09-09T04:17:44;15.20;99.90
9828;DHT22;4953;48.952;9.442;2022-09-09T04:20:11;15.10;99.90
9828;DHT22;4953;48.952;9.442;2022-09-09T04:22:37;15.10;99.90
9828;DHT22;4953;48.952;9.442;2022-09-09T04:25:05;15.10;99.90
9828;DHT22;4953;48.952;9.442;2022-09-09T04:27:32;15.10;99.90
9828;DHT22;4953;48.952;9.442;2022-09-09T04:29:59;15.10;99.90
9828;DHT22;4953;48.952;9.442;2022-09-09T04:32:27;15.10;99.90
9828;DHT22;4953;48.952;9.442;2022-09-09T04:34:54;15.10;99.90
9828;DHT22;4953;48.952;9.442;2022-09-09T04:37:21;15.10;99.90
9828;DHT22;4953;48.952;9.442;2022-09-09T04:39:48;15.10;99.90
9828;DHT22;4953;48.952;9.442;2022-09-09T04:42:14;15.10;99.90
9828;DHT22;4953;48.952;9.442;2022-09-09T04:44:41;15.00;99.90
9828;DHT22;4953;48.952;9.442;2022-09-09T04:47:09;15.00;99.90
9828;DHT22;4953;48.952;9.442;2022-09-09T04:49:37;15.00;99.90
9828;DHT22;4953;48.952;9.442;2022-09-09T04:52:04;15.00;99.90
9828;DHT22;4953;48.952;9.442;2022-09-09T04:54:31;14.90;99.90
9828;DHT22;4953;48.952;9.442;2022-09-09T04:56:58;14.90;99.90
9828;DHT22;4953;48.952;9.442;2022-09-09T04:59:25;15.00;99.90
9828;DHT22;4953;48.952;9.442;2022-09-09T05:01:51;15.00;99.90
9828;DHT22;4953;48.952;9.442;2022-09-09T05:04:20;15.00;99.90
9828;DHT22;4953;48.952;9.442;2022-09-09T05:06:48;14.90;99.90
9828;DHT22;4953;48.952;9.442;2022-09-09T05:09:15;14.80;99.90
9828;DHT22;4953;48.952;9.442;2022-09-09T05:11:42;14.70;99.90
9828;DHT22;4953;48.952;9.442;2022-09-09T05:14:09;14.70;99.90
9828;DHT22;4953;48.952;9.442;2022-09-09T05:16:37;14.70;99.90
9828;DHT22;4953;48.952;9.442;2022-09-09T05:19:04;14.60;99.90
9828;DHT22;4953;48.952;9.442;2022-09-09T05:21:33;14.70;99.90
9828;DHT22;4953;48.952;9.442;2022-09-09T05:24:02;14.80;99.90
9828;DHT22;4953;48.952;9.442;2022-09-09T05:26:29;14.80;99.90
9828;DHT22;4953;48.952;9.442;2022-09-09T05:28:56;14.90;99.90
9828;DHT22;4953;48.952;9.442;2022-09-09T05:31:24;14.90;99.90
9828;DHT22;4953;48.952;9.442;2022-09-09T05:33:53;14.90;99.90
9828;DHT22;4953;48.952;9.442;2022-09-09T05:36:21;14.90;99.90
9828;DHT22;4953;48.952;9.442;2022-09-09T05:38:49;15.00;99.90
9828;DHT22;4953;48.952;9.442;2022-09-09T05:41:17;15.00;99.90
9828;DHT22;4953;48.952;9.442;2022-09-09T05:43:46;15.00;99.90
9828;DHT22;4953;48.952;9.442;2022-09-09T05:46:15;15.00;99.90
9828;DHT22;4953;48.952;9.442;2022-09-09T05:48:44;15.10;99.90
9828;DHT22;4953;48.952;9.442;2022-09-09T05:51:13;15.00;99.90
9828;DHT22;4953;48.952;9.442;2022-09-09T05:53:41;15.00;99.90
9828;DHT22;4953;48.952;9.442;2022-09-09T05:56:10;15.00;99.90
9828;DHT22;4953;48.952;9.442;2022-09-09T05:58:40;15.10;99.90
9828;DHT22;4953;48.952;9.442;2022-09-09T06:01:10;15.10;99.90
9828;DHT22;4953;48.952;9.442;2022-09-09T06:03:39;15.20;99.90
9828;DHT22;4953;48.952;9.442;2022-09-09T06:06:07;15.20;99.90
9828;DHT22;4953;48.952;9.442;2022-09-09T06:08:36;15.10;99.90
9828;DHT22;4953;48.952;9.442;2022-09-09T06:11:04;15.00;99.90
9828;DHT22;4953;48.952;9.442;2022-09-09T06:13:32;15.00;99.90
9828;DHT22;4953;48.952;9.442;2022-09-09T06:16:00;15.00;99.90
9828;DHT22;4953;48.952;9.442;2022-09-09T06:18:27;15.10;99.90
9828;DHT22;4953;48.952;9.442;2022-09-09T06:20:56;15.10;99.90
9828;DHT22;4953;48.952;9.442;2022-09-09T06:23:23;15.10;99.90
9828;DHT22;4953;48.952;9.442;2022-09-09T06:25:50;15.20;99.90
9828;DHT22;4953;48.952;9.442;2022-09-09T06:28:18;15.20;99.90
9828;DHT22;4953;48.952;9.442;2022-09-09T06:30:44;15.30;99.90
9828;DHT22;4953;48.952;9.442;2022-09-09T06:33:13;15.30;99.90
9828;DHT22;4953;48.952;9.442;2022-09-09T06:35:40;15.30;99.90
9828;DHT22;4953;48.952;9.442;2022-09-09T06:38:07;15.40;99.90
9828;DHT22;4953;48.952;9.442;2022-09-09T06:40:34;15.50;99.90
9828;DHT22;4953;48.952;9.442;2022-09-09T06:43:01;15.50;99.90
9828;DHT22;4953;48.952;9.442;2022-09-09T06:45:28;15.50;99.90
9828;DHT22;4953;48.952;9.442;2022-09-09T06:47:55;15.60;99.90
9828;DHT22;4953;48.952;9.442;2022-09-09T06:50:24;15.60;99.90
9828;DHT22;4953;48.952;9.442;2022-09-09T06:52:51;15.70;99.90
9828;DHT22;4953;48.952;9.442;2022-09-09T06:55:18;15.70;99.90
9828;DHT22;4953;48.952;9.442;2022-09-09T06:57:46;15.80;99.90
9828;DHT22;4953;48.952;9.442;2022-09-09T07:00:14;15.90;99.90
9828;DHT22;4953;48.952;9.442;2022-09-09T07:02:40;15.90;99.90
9828;DHT22;4953;48.952;9.442;2022-09-09T07:05:08;16.00;99.90
9828;DHT22;4953;48.952;9.442;2022-09-09T07:07:36;16.00;99.90
9828;DHT22;4953;48.952;9.442;2022-09-09T07:10:04;16.00;99.90
9828;DHT22;4953;48.952;9.442;2022-09-09T07:12:31;16.10;99.90
9828;DHT22;4953;48.952;9.442;2022-09-09T07:14:57;16.20;99.90
9828;DHT22;4953;48.952;9.442;2022-09-09T07:17:24;16.20;99.90
9828;DHT22;4953;48.952;9.442;2022-09-09T07:19:51;16.30;99.90
9828;DHT22;4953;48.952;9.442;2022-09-09T07:22:18;16.40;99.90
9828;DHT22;4953;48.952;9.442;2022-09-09T07:24:46;16.50;99.90
9828;DHT22;4953;48.952;9.442;2022-09-09T07:27:14;16.50;99.90
9828;DHT22;4953;48.952;9.442;2022-09-09T07:29:41;16.60;99.90
9828;DHT22;4953;48.952;9.442;2022-09-09T07:32:08;16.60;99.90
9828;DHT22;4953;48.952;9.442;2022-09-09T07:34:35;16.60;99.90
9828;DHT22;4953;48.952;9.442;2022-09-09T07:37:02;16.60;99.90
9828;DHT22;4953;48.952;9.442;2022-09-09T07:39:29;16.70;99.90
9828;DHT22;4953;48.952;9.442;2022-09-09T07:41:57;16.80;99.90
9828;DHT22;4953;48.952;9.442;2022-09-09T07:44:24;16.80;99.90
9828;DHT22;4953;48.952;9.442;2022-09-09T07:46:52;16.90;99.90
9828;DHT22;4953;48.952;9.442;2022-09-09T07:49:19;17.00;99.90
9828;DHT22;4953;48.952;9.442;2022-09-09T07:51:46;17.10;99.90
9828;DHT22;4953;48.952;9.442;2022-09-09T07:54:17;17.10;99.90
9828;DHT22;4953;48.952;9.442;2022-09-09T07:56:46;17.20;99.90
9828;DHT22;4953;48.952;9.442;2022-09-09T07:59:14;17.40;99.90
9828;DHT22;4953;48.952;9.442;2022-09-09T08:01:43;17.40;99.90
9828;DHT22;4953;48.952;9.442;2022-09-09T08:04:12;17.40;99.90
9828;DHT22;4953;48.952;9.442;2022-09-09T08:06:42;17.50;99.90
9828;DHT22;4953;48.952;9.442;2022-09-09T08:09:10;17.60;99.90
9828;DHT22;4953;48.952;9.442;2022-09-09T08:11:38;17.70;99.90
9828;DHT22;4953;48.952;9.442;2022-09-09T08:14:05;17.80;99.90
9828;DHT22;4953;48.952;9.442;2022-09-09T08:16:36;17.90;99.90
9828;DHT22;4953;48.952;9.442;2022-09-09T08:19:04;17.90;99.90
9828;DHT22;4953;48.952;9.442;2022-09-09T08:21:33;18.00;99.90
9828;DHT22;4953;48.952;9.442;2022-09-09T08:24:03;18.00;99.90
9828;DHT22;4953;48.952;9.442;2022-09-09T08:26:33;18.10;99.90
9828;DHT22;4953;48.952;9.442;2022-09-09T08:29:01;18.20;99.90
9828;DHT22;4953;48.952;9.442;2022-09-09T08:31:31;18.40;99.90
9828;DHT22;4953;48.952;9.442;2022-09-09T08:34:00;18.50;99.90
9828;DHT22;4953;48.952;9.442;2022-09-09T08:36:30;18.60;99.90
9828;DHT22;4953;48.952;9.442;2022-09-09T08:39:01;18.70;99.90
9828;DHT22;4953;48.952;9.442;2022-09-09T08:41:42;18.80;99.90
9828;DHT22;4953;48.952;9.442;2022-09-09T08:44:18;19.00;99.90
9828;DHT22;4953;48.952;9.442;2022-09-09T08:46:52;19.20;99.90
9828;DHT22;4953;48.952;9.442;2022-09-09T08:49:42;19.50;99.90
9828;DHT22;4953;48.952;9.442;2022-09-09T08:52:15;19.60;99.90
9828;DHT22;4953;48.952;9.442;2022-09-09T08:54:43;19.80;99.90
9828;DHT22;4953;48.952;9.442;2022-09-09T08:57:13;20.40;99.90
9828;DHT22;4953;48.952;9.442;2022-09-09T08:59:43;20.40;99.90
9828;DHT22;4953;48.952;9.442;2022-09-09T09:02:15;20.50;99.90
9828;DHT22;4953;48.952;9.442;2022-09-09T09:04:58;20.70;99.90
9828;DHT22;4953;48.952;9.442;2022-09-09T09:07:36;20.80;99.90
9828;DHT22;4953;48.952;9.442;2022-09-09T09:10:15;21.00;99.90
9828;DHT22;4953;48.952;9.442;2022-09-09T09:12:43;21.30;99.90
9828;DHT22;4953;48.952;9.442;2022-09-09T09:15:16;21.60;99.90
9828;DHT22;4953;48.952;9.442;2022-09-09T09:17:47;22.00;99.90
9828;DHT22;4953;48.952;9.442;2022-09-09T09:23:02;22.00;99.90
9828;DHT22;4953;48.952;9.442;2022-09-09T09:25:33;22.70;99.90
9828;DHT22;4953;48.952;9.442;2022-09-09T09:28:10;23.40;99.90
9828;DHT22;4953;48.952;9.442;2022-09-09T09:30:45;23.30;99.90
9828;DHT22;4953;48.952;9.442;2022-09-09T09:33:17;22.90;99.90
9828;DHT22;4953;48.952;9.442;2022-09-09T09:35:50;22.90;99.90
9828;DHT22;4953;48.952;9.442;2022-09-09T09:38:19;23.30;99.90
9828;DHT22;4953;48.952;9.442;2022-09-09T09:40:52;23.20;99.90
9828;DHT22;4953;48.952;9.442;2022-09-09T09:43:25;23.00;99.90
9828;DHT22;4953;48.952;9.442;2022-09-09T09:45:53;22.90;99.90
9828;DHT22;4953;48.952;9.442;2022-09-09T09:48:20;22.90;99.90
9828;DHT22;4953;48.952;9.442;2022-09-09T09:50:51;22.70;99.90
9828;DHT22;4953;48.952;9.442;2022-09-09T09:53:22;22.50;99.90
9828;DHT22;4953;48.952;9.442;2022-09-09T09:55:54;22.30;99.90
9828;DHT22;4953;48.952;9.442;2022-09-09T09:58:23;22.20;99.90
9828;DHT22;4953;48.952;9.442;2022-09-09T10:00:52;22.00;99.90
9828;DHT22;4953;48.952;9.442;2022-09-09T10:03:23;21.90;99.90
9828;DHT22;4953;48.952;9.442;2022-09-09T10:05:53;21.80;99.90
9828;DHT22;4953;48.952;9.442;2022-09-09T10:08:22;21.70;99.90
9828;DHT22;4953;48.952;9.442;2022-09-09T10:11:07;21.60;99.90
9828;DHT22;4953;48.952;9.442;2022-09-09T10:13:46;21.60;99.90
9828;DHT22;4953;48.952;9.442;2022-09-09T10:16:33;21.90;99.90
9828;DHT22;4953;48.952;9.442;2022-09-09T10:19:04;21.90;99.90
9828;DHT22;4953;48.952;9.442;2022-09-09T10:21:45;21.80;99.90
9828;DHT22;4953;48.952;9.442;2022-09-09T10:24:44;22.10;99.90
9828;DHT22;4953;48.952;9.442;2022-09-09T10:27:19;22.50;99.90
9828;DHT22;4953;48.952;9.442;2022-09-09T10:30:04;22.60;99.90
9828;DHT22;4953;48.952;9.442;2022-09-09T10:32:46;22.70;99.90
9828;DHT22;4953;48.952;9.442;2022-09-09T10:35:27;23.30;99.90
9828;DHT22;4953;48.952;9.442;2022-09-09T10:38:16;24.00;99.90
9828;DHT22;4953;48.952;9.442;2022-09-09T10:41:00;24.80;99.90
9828;DHT22;4953;48.952;9.442;2022-09-09T10:43:41;25.10;99.90
9828;DHT22;4953;48.952;9.442;2022-09-09T10:46:15;24.90;99.90
9828;DHT22;4953;48.952;9.442;2022-09-09T10:49:01;24.60;99.90
9828;DHT22;4953;48.952;9.442;2022-09-09T10:51:36;25.10;99.90
9828;DHT22;4953;48.952;9.442;2022-09-09T10:54:23;25.30;99.90
9828;DHT22;4953;48.952;9.442;2022-09-09T10:56:54;25.10;99.90
9828;DHT22;4953;48.952;9.442;2022-09-09T10:59:25;25.00;99.90
9828;DHT22;4953;48.952;9.442;2022-09-09T11:01:57;24.70;99.90
9828;DHT22;4953;48.952;9.442;2022-09-09T11:04:28;24.40;99.90
9828;DHT22;4953;48.952;9.442;2022-09-09T11:07:01;24.10;99.90
9828;DHT22;4953;48.952;9.442;2022-09-09T11:09:36;23.70;99.90
9828;DHT22;4953;48.952;9.442;2022-09-09T11:12:05;23.40;99.90
9828;DHT22;4953;48.952;9.442;2022-09-09T11:14:39;23.20;99.90
9828;DHT22;4953;48.952;9.442;2022-09-09T11:17:10;23.10;99.90
9828;DHT22;4953;48.952;9.442;2022-09-09T11:19:40;23.00;99.90
9828;DHT22;4953;48.952;9.442;2022-09-09T11:22:15;22.90;99.90
9828;DHT22;4953;48.952;9.442;2022-09-09T11:24:48;22.90;99.90
9828;DHT22;4953;48.952;9.442;2022-09-09T11:27:23;22.90;99.90
9828;DHT22;4953;48.952;9.442;2022-09-09T11:30:15;22.80;99.90
9828;DHT22;4953;48.952;9.442;2022-09-09T11:33:08;22.60;99.90
9828;DHT22;4953;48.952;9.442;2022-09-09T11:35:47;22.40;99.90
9828;DHT22;4953;48.952;9.442;2022-09-09T11:38:25;22.30;99.90
9828;DHT22;4953;48.952;9.442;2022-09-09T11:40:59;22.10;99.90
9828;DHT22;4953;48.952;9.442;2022-09-09T11:43:32;21.50;99.90
9828;DHT22;4953;48.952;9.442;2022-09-09T11:46:04;20.90;99.90
9828;DHT22;4953;48.952;9.442;2022-09-09T11:48:35;20.30;99.90
9828;DHT22;4953;48.952;9.442;2022-09-09T11:51:06;20.10;99.90
9828;DHT22;4953;48.952;9.442;2022-09-09T11:53:34;19.90;99.90
9828;DHT22;4953;48.952;9.442;2022-09-09T11:56:11;19.90;99.90
9828;DHT22;4953;48.952;9.442;2022-09-09T11:58:42;19.50;99.90
9828;DHT22;4953;48.952;9.442;2022-09-09T12:01:30;19.30;99.90
9828;DHT22;4953;48.952;9.442;2022-09-09T12:04:13;19.10;99.90
9828;DHT22;4953;48.952;9.442;2022-09-09T12:06:43;18.90;99.90
9828;DHT22;4953;48.952;9.442;2022-09-09T12:09:18;18.80;99.90
9828;DHT22;4953;48.952;9.442;2022-09-09T12:11:50;18.90;99.90
9828;DHT22;4953;48.952;9.442;2022-09-09T12:14:21;19.10;99.90
9828;DHT22;4953;48.952;9.442;2022-09-09T12:16:49;19.20;99.90
9828;DHT22;4953;48.952;9.442;2022-09-09T12:19:23;19.40;99.90
9828;DHT22;4953;48.952;9.442;2022-09-09T12:21:54;19.60;99.90
9828;DHT22;4953;48.952;9.442;2022-09-09T12:24:30;19.70;99.90
9828;DHT22;4953;48.952;9.442;2022-09-09T12:27:06;19.80;99.90
9828;DHT22;4953;48.952;9.442;2022-09-09T12:29:41;19.90;99.90
9828;DHT22;4953;48.952;9.442;2022-09-09T12:32:12;20.00;99.90
9828;DHT22;4953;48.952;9.442;2022-09-09T12:34:46;20.10;99.90
9828;DHT22;4953;48.952;9.442;2022-09-09T12:37:18;20.30;99.90
9828;DHT22;4953;48.952;9.442;2022-09-09T12:39:53;20.50;99.90
9828;DHT22;4953;48.952;9.442;2022-09-09T12:42:23;20.60;99.90
9828;DHT22;4953;48.952;9.442;2022-09-09T12:44:52;20.90;99.90
9828;DHT22;4953;48.952;9.442;2022-09-09T12:47:20;21.30;99.90
9828;DHT22;4953;48.952;9.442;2022-09-09T12:49:52;21.60;99.90
9828;DHT22;4953;48.952;9.442;2022-09-09T12:52:26;21.80;99.90
9828;DHT22;4953;48.952;9.442;2022-09-09T12:54:55;22.10;99.90
9828;DHT22;4953;48.952;9.442;2022-09-09T12:57:26;22.20;99.90
9828;DHT22;4953;48.952;9.442;2022-09-09T13:00:05;22.40;99.90
9828;DHT22;4953;48.952;9.442;2022-09-09T13:02:32;22.20;99.90
9828;DHT22;4953;48.952;9.442;2022-09-09T13:05:08;21.90;99.90
9828;DHT22;4953;48.952;9.442;2022-09-09T13:07:42;21.90;99.90
9828;DHT22;4953;48.952;9.442;2022-09-09T13:10:11;22.00;99.90
9828;DHT22;4953;48.952;9.442;2022-09-09T13:12:40;21.70;99.90
9828;DHT22;4953;48.952;9.442;2022-09-09T13:15:20;21.40;99.90
9828;DHT22;4953;48.952;9.442;2022-09-09T13:17:53;21.40;99.90
9828;DHT22;4953;48.952;9.442;2022-09-09T13:20:21;21.30;99.90
9828;DHT22;4953;48.952;9.442;2022-09-09T13:22:49;21.20;99.90
9828;DHT22;4953;48.952;9.442;2022-09-09T13:25:21;21.20;99.90
9828;DHT22;4953;48.952;9.442;2022-09-09T13:27:59;21.40;99.90
9828;DHT22;4953;48.952;9.442;2022-09-09T13:30:29;21.70;99.90
9828;DHT22;4953;48.952;9.442;2022-09-09T13:33:03;21.80;99.90
9828;DHT22;4953;48.952;9.442;2022-09-09T13:35:32;21.80;99.90
9828;DHT22;4953;48.952;9.442;2022-09-09T13:38:06;21.90;99.90
9828;DHT22;4953;48.952;9.442;2022-09-09T13:40:33;21.70;99.90
9828;DHT22;4953;48.952;9.442;2022-09-09T13:43:03;21.60;99.90
9828;DHT22;4953;48.952;9.442;2022-09-09T13:45:31;21.40;99.90
9828;DHT22;4953;48.952;9.442;2022-09-09T13:48:09;21.30;99.90
9828;DHT22;4953;48.952;9.442;2022-09-09T13:50:36;21.10;99.90
9828;DHT22;4953;48.952;9.442;2022-09-09T13:53:03;21.00;99.90
9828;DHT22;4953;48.952;9.442;2022-09-09T13:55:30;21.00;99.90
9828;DHT22;4953;48.952;9.442;2022-09-09T13:58:01;21.00;99.90
9828;DHT22;4953;48.952;9.442;2022-09-09T14:00:31;21.00;99.90
9828;DHT22;4953;48.952;9.442;2022-09-09T14:02:59;21.00;99.90
9828;DHT22;4953;48.952;9.442;2022-09-09T14:05:27;21.10;99.90
9828;DHT22;4953;48.952;9.442;2022-09-09T14:07:58;21.20;99.90
9828;DHT22;4953;48.952;9.442;2022-09-09T14:10:26;21.20;99.90
9828;DHT22;4953;48.952;9.442;2022-09-09T14:12:52;21.20;99.90
9828;DHT22;4953;48.952;9.442;2022-09-09T14:15:19;21.30;99.90
9828;DHT22;4953;48.952;9.442;2022-09-09T14:17:51;21.40;99.90
9828;DHT22;4953;48.952;9.442;2022-09-09T14:20:18;21.50;99.90
9828;DHT22;4953;48.952;9.442;2022-09-09T14:22:45;21.50;99.90
9828;DHT22;4953;48.952;9.442;2022-09-09T14:25:12;21.50;99.90
9828;DHT22;4953;48.952;9.442;2022-09-09T14:27:39;21.50;99.90
9828;DHT22;4953;48.952;9.442;2022-09-09T14:30:08;21.50;99.90
9828;DHT22;4953;48.952;9.442;2022-09-09T14:32:37;21.50;99.90
9828;DHT22;4953;48.952;9.442;2022-09-09T14:35:06;21.70;99.90
9828;DHT22;4953;48.952;9.442;2022-09-09T14:37:33;21.80;99.90
9828;DHT22;4953;48.952;9.442;2022-09-09T14:40:00;21.90;99.90
9828;DHT22;4953;48.952;9.442;2022-09-09T14:42:27;21.90;99.90
9828;DHT22;4953;48.952;9.442;2022-09-09T14:44:55;21.90;99.90
9828;DHT22;4953;48.952;9.442;2022-09-09T14:47:22;22.10;99.90
9828;DHT22;4953;48.952;9.442;2022-09-09T14:49:51;22.30;99.90
9828;DHT22;4953;48.952;9.442;2022-09-09T14:52:20;22.50;99.90
9828;DHT22;4953;48.952;9.442;2022-09-09T14:54:47;22.70;99.90
9828;DHT22;4953;48.952;9.442;2022-09-09T14:57:15;22.90;99.90
9828;DHT22;4953;48.952;9.442;2022-09-09T14:59:41;23.20;99.90
9828;DHT22;4953;48.952;9.442;2022-09-09T15:02:08;23.40;99.90
9828;DHT22;4953;48.952;9.442;2022-09-09T15:04:35;23.60;99.90
9828;DHT22;4953;48.952;9.442;2022-09-09T15:07:02;23.70;99.90
9828;DHT22;4953;48.952;9.442;2022-09-09T15:09:30;23.80;99.90
9828;DHT22;4953;48.952;9.442;2022-09-09T15:11:57;23.80;99.90
9828;DHT22;4953;48.952;9.442;2022-09-09T15:14:24;23.70;99.90
9828;DHT22;4953;48.952;9.442;2022-09-09T15:16:51;23.60;99.90
9828;DHT22;4953;48.952;9.442;2022-09-09T15:19:18;23.50;99.90
9828;DHT22;4953;48.952;9.442;2022-09-09T15:21:45;23.40;99.90
9828;DHT22;4953;48.952;9.442;2022-09-09T15:24:13;23.30;99.90
9828;DHT22;4953;48.952;9.442;2022-09-09T15:26:41;23.00;99.90
9828;DHT22;4953;48.952;9.442;2022-09-09T15:29:08;22.90;99.90
9828;DHT22;4953;48.952;9.442;2022-09-09T15:31:35;22.90;99.90
9828;DHT22;4953;48.952;9.442;2022-09-09T15:34:04;22.70;99.90
9828;DHT22;4953;48.952;9.442;2022-09-09T15:36:33;22.70;99.90
9828;DHT22;4953;48.952;9.442;2022-09-09T15:39:01;22.50;99.90
9828;DHT22;4953;48.952;9.442;2022-09-09T15:41:29;22.40;99.90
9828;DHT22;4953;48.952;9.442;2022-09-09T15:43:58;22.20;99.90
9828;DHT22;4953;48.952;9.442;2022-09-09T15:46:29;22.10;99.90
9828;DHT22;4953;48.952;9.442;2022-09-09T15:48:57;22.10;99.90
9828;DHT22;4953;48.952;9.442;2022-09-09T15:51:25;22.10;99.90
9828;DHT22;4953;48.952;9.442;2022-09-09T15:53:57;22.00;99.90
9828;DHT22;4953;48.952;9.442;2022-09-09T15:56:25;21.80;99.90
9828;DHT22;4953;48.952;9.442;2022-09-09T15:58:53;21.70;99.90
9828;DHT22;4953;48.952;9.442;2022-09-09T16:01:21;21.60;99.90
9828;DHT22;4953;48.952;9.442;2022-09-09T16:03:48;21.60;99.90
9828;DHT22;4953;48.952;9.442;2022-09-09T16:06:16;21.60;99.90
9828;DHT22;4953;48.952;9.442;2022-09-09T16:08:45;21.50;99.90
9828;DHT22;4953;48.952;9.442;2022-09-09T16:11:13;21.50;99.90
9828;DHT22;4953;48.952;9.442;2022-09-09T16:13:41;21.40;99.90
9828;DHT22;4953;48.952;9.442;2022-09-09T16:16:10;21.50;99.90
9828;DHT22;4953;48.952;9.442;2022-09-09T16:18:41;21.40;99.90
9828;DHT22;4953;48.952;9.442;2022-09-09T16:21:14;21.40;99.90
9828;DHT22;4953;48.952;9.442;2022-09-09T16:23:41;21.40;99.90
9828;DHT22;4953;48.952;9.442;2022-09-09T16:26:10;21.30;99.90
9828;DHT22;4953;48.952;9.442;2022-09-09T16:28:38;21.30;99.90
9828;DHT22;4953;48.952;9.442;2022-09-09T16:31:06;21.20;99.90
9828;DHT22;4953;48.952;9.442;2022-09-09T16:33:32;21.20;99.90
9828;DHT22;4953;48.952;9.442;2022-09-09T16:36:06;21.10;99.90
9828;DHT22;4953;48.952;9.442;2022-09-09T16:38:33;21.00;99.90
9828;DHT22;4953;48.952;9.442;2022-09-09T16:41:01;21.00;99.90
9828;DHT22;4953;48.952;9.442;2022-09-09T16:43:28;20.90;99.90
9828;DHT22;4953;48.952;9.442;2022-09-09T16:45:55;20.70;99.90
9828;DHT22;4953;48.952;9.442;2022-09-09T16:48:21;20.30;99.90
9828;DHT22;4953;48.952;9.442;2022-09-09T16:50:48;19.90;99.90
9828;DHT22;4953;48.952;9.442;2022-09-09T16:53:16;19.70;99.90
9828;DHT22;4953;48.952;9.442;2022-09-09T16:55:43;19.40;99.90
9828;DHT22;4953;48.952;9.442;2022-09-09T16:58:10;19.30;99.90
9828;DHT22;4953;48.952;9.442;2022-09-09T17:00:37;19.10;99.90
9828;DHT22;4953;48.952;9.442;2022-09-09T17:03:04;19.00;99.90
9828;DHT22;4953;48.952;9.442;2022-09-09T17:05:31;18.70;99.90
9828;DHT22;4953;48.952;9.442;2022-09-09T17:07:58;18.60;99.90
9828;DHT22;4953;48.952;9.442;2022-09-09T17:10:26;18.50;99.90
9828;DHT22;4953;48.952;9.442;2022-09-09T17:12:53;18.40;99.90
9828;DHT22;4953;48.952;9.442;2022-09-09T17:15:20;18.20;99.90
9828;DHT22;4953;48.952;9.442;2022-09-09T17:17:48;18.10;99.90
9828;DHT22;4953;48.952;9.442;2022-09-09T17:20:15;18.00;99.90
9828;DHT22;4953;48.952;9.442;2022-09-09T17:22:42;17.80;99.90
9828;DHT22;4953;48.952;9.442;2022-09-09T17:25:09;17.60;99.90
9828;DHT22;4953;48.952;9.442;2022-09-09T17:27:37;17.50;99.90
9828;DHT22;4953;48.952;9.442;2022-09-09T17:30:05;17.40;99.90
9828;DHT22;4953;48.952;9.442;2022-09-09T17:32:32;17.40;99.90
9828;DHT22;4953;48.952;9.442;2022-09-09T17:35:01;17.30;99.90
9828;DHT22;4953;48.952;9.442;2022-09-09T17:37:28;17.50;99.90
9828;DHT22;4953;48.952;9.442;2022-09-09T17:39:55;17.50;99.90
9828;DHT22;4953;48.952;9.442;2022-09-09T17:42:23;17.60;99.90
9828;DHT22;4953;48.952;9.442;2022-09-09T17:44:51;17.70;99.90
9828;DHT22;4953;48.952;9.442;2022-09-09T17:47:18;17.80;99.90
9828;DHT22;4953;48.952;9.442;2022-09-09T17:49:45;17.80;99.90
9828;DHT22;4953;48.952;9.442;2022-09-09T17:52:14;17.90;99.90
9828;DHT22;4953;48.952;9.442;2022-09-09T17:54:41;17.90;99.90
9828;DHT22;4953;48.952;9.442;2022-09-09T17:57:08;18.00;99.90
9828;DHT22;4953;48.952;9.442;2022-09-09T17:59:35;17.90;99.90
9828;DHT22;4953;48.952;9.442;2022-09-09T18:02:04;17.90;99.90
9828;DHT22;4953;48.952;9.442;2022-09-09T18:04:34;17.80;99.90
9828;DHT22;4953;48.952;9.442;2022-09-09T18:07:01;17.80;99.90
9828;DHT22;4953;48.952;9.442;2022-09-09T18:09:28;17.90;99.90
9828;DHT22;4953;48.952;9.442;2022-09-09T18:11:56;17.90;99.90
9828;DHT22;4953;48.952;9.442;2022-09-09T18:14:25;17.90;99.90
9828;DHT22;4953;48.952;9.442;2022-09-09T18:16:52;17.90;99.90
9828;DHT22;4953;48.952;9.442;2022-09-09T18:19:23;18.00;99.90
9828;DHT22;4953;48.952;9.442;2022-09-09T18:21:50;17.90;99.90
9828;DHT22;4953;48.952;9.442;2022-09-09T18:24:21;18.00;99.90
9828;DHT22;4953;48.952;9.442;2022-09-09T18:26:50;17.90;99.90
9828;DHT22;4953;48.952;9.442;2022-09-09T18:29:19;17.90;99.90
9828;DHT22;4953;48.952;9.442;2022-09-09T18:31:46;17.90;99.90
9828;DHT22;4953;48.952;9.442;2022-09-09T18:34:15;17.80;99.90
9828;DHT22;4953;48.952;9.442;2022-09-09T18:36:45;17.80;99.90
9828;DHT22;4953;48.952;9.442;2022-09-09T18:39:13;17.80;99.90
9828;DHT22;4953;48.952;9.442;2022-09-09T18:41:43;17.70;99.90
9828;DHT22;4953;48.952;9.442;2022-09-09T18:44:12;17.70;99.90
9828;DHT22;4953;48.952;9.442;2022-09-09T18:46:41;17.60;99.90
9828;DHT22;4953;48.952;9.442;2022-09-09T18:49:08;17.60;99.90
9828;DHT22;4953;48.952;9.442;2022-09-09T18:51:36;17.60;99.90
9828;DHT22;4953;48.952;9.442;2022-09-09T18:54:09;17.60;99.90
9828;DHT22;4953;48.952;9.442;2022-09-09T18:56:40;17.60;99.90
9828;DHT22;4953;48.952;9.442;2022-09-09T18:59:10;17.70;99.90
9828;DHT22;4953;48.952;9.442;2022-09-09T19:01:37;17.70;99.90
9828;DHT22;4953;48.952;9.442;2022-09-09T19:04:07;17.60;99.90
9828;DHT22;4953;48.952;9.442;2022-09-09T19:06:38;17.60;99.90
9828;DHT22;4953;48.952;9.442;2022-09-09T19:09:09;17.60;99.90
9828;DHT22;4953;48.952;9.442;2022-09-09T19:11:37;17.60;99.90
9828;DHT22;4953;48.952;9.442;2022-09-09T19:14:09;17.70;99.90
9828;DHT22;4953;48.952;9.442;2022-09-09T19:16:37;17.70;99.90
9828;DHT22;4953;48.952;9.442;2022-09-09T19:19:07;17.70;99.90
9828;DHT22;4953;48.952;9.442;2022-09-09T19:21:36;17.70;99.90
9828;DHT22;4953;48.952;9.442;2022-09-09T19:24:05;17.60;99.90
9828;DHT22;4953;48.952;9.442;2022-09-09T19:26:35;17.60;99.90
9828;DHT22;4953;48.952;9.442;2022-09-09T19:29:05;17.60;99.90
9828;DHT22;4953;48.952;9.442;2022-09-09T19:31:32;17.50;99.90
9828;DHT22;4953;48.952;9.442;2022-09-09T19:33:59;17.50;99.90
9828;DHT22;4953;48.952;9.442;2022-09-09T19:36:26;17.50;99.90
9828;DHT22;4953;48.952;9.442;2022-09-09T19:38:54;17.40;99.90
9828;DHT22;4953;48.952;9.442;2022-09-09T19:41:23;17.40;99.90
9828;DHT22;4953;48.952;9.442;2022-09-09T19:43:54;17.40;99.90
9828;DHT22;4953;48.952;9.442;2022-09-09T19:46:22;17.40;99.90
9828;DHT22;4953;48.952;9.442;2022-09-09T19:48:49;17.40;99.90
9828;DHT22;4953;48.952;9.442;2022-09-09T19:51:18;17.50;99.90
9828;DHT22;4953;48.952;9.442;2022-09-09T19:53:47;17.40;99.90
9828;DHT22;4953;48.952;9.442;2022-09-09T19:56:15;17.40;99.90
9828;DHT22;4953;48.952;9.442;2022-09-09T19:58:44;17.40;99.90
9828;DHT22;4953;48.952;9.442;2022-09-09T20:01:20;17.30;99.90
9828;DHT22;4953;48.952;9.442;2022-09-09T20:03:48;17.30;99.90
9828;DHT22;4953;48.952;9.442;2022-09-09T20:06:19;17.20;99.90
9828;DHT22;4953;48.952;9.442;2022-09-09T20:08:48;17.20;99.90
9828;DHT22;4953;48.952;9.442;2022-09-09T20:11:16;17.20;99.90
9828;DHT22;4953;48.952;9.442;2022-09-09T20:13:48;17.10;99.90
9828;DHT22;4953;48.952;9.442;2022-09-09T20:16:18;17.00;99.90
9828;DHT22;4953;48.952;9.442;2022-09-09T20:18:47;16.90;99.90